CDT,Max TemperatureF,Mean TemperatureF,Min TemperatureF,Max Dew PointF,MeanDew PointF,Min DewpointF,Max Humidity, Mean Humidity, Min Humidity, Max Sea Level PressureIn, Mean Sea Level PressureIn, Min Sea Level PressureIn, Max VisibilityMiles, Mean VisibilityMiles, Min VisibilityMiles, Max Wind SpeedMPH, Mean Wind SpeedMPH, Max Gust SpeedMPH,PrecipitationIn, CloudCover, Events, WindDirDegrees
2013-10-1,68,58,48,54,41,28,94,55,26,29.87,29.66,29.50,10,10,10,15,5,28,0.00,1,Rain,229
2013-10-2,62,47,32,48,38,28,100,70,39,30.04,29.99,29.87,10,10,10,13,2,18,0.00,2,Rain,248
2013-10-3,64,48,33,52,41,32,93,79,52,30.10,30.03,30.00,10,10,10,7,0,,0.00,2,,1
2013-10-4,60,48,35,48,42,34,93,78,52,30.22,30.18,30.10,10,10,10,7,1,,0.00,5,Rain,34
2013-10-5,48,45,42,43,41,36,100,89,66,30.16,30.03,29.88,10,8,2,9,4,,0.12,8,Rain,51
2013-10-6,51,40,30,52,41,28,100,96,87,29.87,29.79,29.76,10,9,2,9,3,,0.10,6,Rain,343
2013-10-7,60,43,26,55,36,27,100,88,51,29.95,29.87,29.75,10,10,7,10,1,20,0.00,1,,310
2013-10-8,75,52,28,46,39,27,100,64,29,29.94,29.79,29.66,10,10,10,15,4,25,0.00,0,,164
2013-10-9,75,58,42,52,45,39,93,67,38,30.04,29.94,29.80,10,10,10,8,4,,0.00,0,,190
2013-10-10,75,56,37,52,44,36,100,70,36,30.04,29.98,29.91,10,10,10,8,1,18,0.00,1,,148
2013-10-11,73,62,50,55,50,43,94,73,41,29.94,29.81,29.59,10,10,3,12,3,22,0.02,1,Rain-Thunderstorm,136
2013-10-12,60,52,44,55,47,43,100,88,76,30.04,29.74,29.57,10,9,2,13,7,21,0.04,8,Rain,195
2013-10-13,57,42,26,52,37,25,100,86,47,30.41,30.29,30.05,10,10,4,9,3,17,0.00,2,Rain,257
2013-10-14,50,37,24,46,34,21,100,90,86,30.43,30.35,30.22,10,9,2,0,0,,0.25,4,Rain,-1
2013-10-15,42,40,39,41,40,39,100,96,93,30.23,30.02,29.93,10,9,4,9,3,,0.34,8,Rain,20
2013-10-16,53,40,26,48,35,27,100,86,47,29.94,29.87,29.81,10,10,4,9,2,,0.00,2,,222
2013-10-17,44,40,35,45,39,34,100,97,93,29.87,29.82,29.78,10,10,7,8,1,,0.04,8,Rain,341
2013-10-18,48,36,24,43,31,23,100,89,57,29.90,29.85,29.76,10,10,10,10,1,18,0.00,5,Rain,210
2013-10-19,48,37,26,46,33,25,100,95,87,29.76,29.71,29.67,10,10,7,7,1,,0.00,7,,304
2013-10-20,37,30,23,36,30,21,100,95,86,29.77,29.74,29.72,10,9,1,12,1,17,0.01,7,Rain-Snow,244
2013-10-21,33,28,24,34,29,25,100,97,93,29.89,29.79,29.73,10,8,1,10,5,,0.03,7,Snow,287
2013-10-22,41,34,26,39,32,27,100,98,93,30.01,29.96,29.89,10,10,4,8,5,,0.00,7,Snow,334
2013-10-23,33,30,28,32,29,27,100,96,87,30.03,29.97,29.93,10,8,1,13,3,17,0.01,8,Snow,311
2013-10-24,41,32,24,39,31,23,100,96,87,30.21,30.14,30.04,10,9,0,7,2,,0.06,6,Snow,266
2013-10-25,44,34,23,43,32,21,100,93,70,30.21,29.89,29.61,10,10,7,13,3,21,0.02,6,Rain,213
2013-10-26,39,32,26,39,35,25,100,98,93,30.03,29.92,29.70,10,10,2,15,5,22,0.03,8,Rain,322
2013-10-27,39,32,24,39,29,18,100,85,69,30.35,29.94,29.73,10,10,10,13,4,23,0.00,7,Rain,349
2013-10-28,37,26,15,23,17,12,86,71,48,30.56,30.48,30.36,10,10,10,7,2,,0.00,2,,7
2013-10-29,41,26,10,30,16,7,93,77,42,30.49,30.32,30.16,10,10,10,7,1,,0.00,0,,216
2013-10-30,42,30,17,36,29,16,100,89,76,30.16,29.94,29.69,10,10,2,5,0,,0.00,7,,163
2013-10-31,39,37,35,37,36,34,100,94,93,29.67,29.49,29.38,10,5,0,7,1,,0.00,8,Fog,323